Time,TemperatureF,DewpointF,PressureIn,WindDirection,WindDirectionDegrees,WindSpeedMPH,WindSpeedGustMPH,Humidity,HourlyPrecipIn,Conditions,Clouds,dailyrainin,SoftwareType,DateUTC
2013-01-21 00:00:00,46.8,23.1,27.46,SSE,158,0.0,0.0,39,0.00,,---,0.00,VWS V14.01,2013-01-21 07:00:00,
2013-01-21 00:05:00,46.8,23.1,27.46,SSE,158,0.0,0.0,39,0.00,,---,0.00,VWS V14.01,2013-01-21 07:05:00,
2013-01-21 00:10:00,46.8,23.1,27.46,East,90,0.0,0.0,39,0.00,,---,0.00,VWS V14.01,2013-01-21 07:10:00,
2013-01-21 00:15:00,46.8,23.1,27.46,East,90,0.0,0.0,39,0.00,,---,0.00,VWS V14.01,2013-01-21 07:15:00,
2013-01-21 00:20:00,46.2,23.2,27.46,East,90,0.0,0.0,40,0.00,,---,0.00,VWS V14.01,2013-01-21 07:20:00,
2013-01-21 00:25:00,46.2,23.8,27.46,East,90,0.0,0.0,41,0.00,,---,0.00,VWS V14.01,2013-01-21 07:25:00,
2013-01-21 00:30:00,46.0,24.2,27.46,East,90,0.0,0.0,42,0.00,,---,0.00,VWS V14.01,2013-01-21 07:30:00,
2013-01-21 00:35:00,46.0,24.2,27.46,East,90,0.0,0.0,42,0.00,,---,0.00,VWS V14.01,2013-01-21 07:35:00,
2013-01-21 00:40:00,46.0,24.2,27.46,East,90,0.0,0.0,42,0.00,,---,0.00,VWS V14.01,2013-01-21 07:40:00,
2013-01-21 00:45:00,45.1,24.0,27.43,East,90,0.0,0.0,43,0.00,,---,0.00,VWS V14.01,2013-01-21 07:45:00,
2013-01-21 00:50:00,44.8,23.7,27.43,East,90,0.0,0.0,43,0.00,,---,0.00,VWS V14.01,2013-01-21 07:50:00,
2013-01-21 00:55:00,44.8,23.7,27.43,East,90,0.0,0.0,43,0.00,,---,0.00,VWS V14.01,2013-01-21 07:55:00,
2013-01-21 01:00:00,44.8,23.7,27.43,East,90,0.0,0.0,43,0.00,,---,0.00,VWS V14.01,2013-01-21 08:00:00,
2013-01-21 01:05:00,44.8,23.7,27.43,East,90,0.0,0.0,43,0.00,,---,0.00,VWS V14.01,2013-01-21 08:05:00,
2013-01-21 01:10:00,44.8,23.7,27.43,ESE,112,0.0,0.0,43,0.00,,---,0.00,VWS V14.01,2013-01-21 08:10:00,
2013-01-21 01:15:00,44.8,23.7,27.43,ESE,112,0.0,0.0,43,0.00,,---,0.00,VWS V14.01,2013-01-21 08:15:00,
2013-01-21 01:20:00,44.8,23.7,27.43,ESE,112,0.0,0.0,43,0.00,,---,0.00,VWS V14.01,2013-01-21 08:20:00,
2013-01-21 01:25:00,44.8,23.7,27.43,ESE,112,0.0,0.0,43,0.00,,---,0.00,VWS V14.01,2013-01-21 08:25:00,
2013-01-21 01:30:00,44.8,23.7,27.43,ESE,112,0.0,0.0,43,0.00,,---,0.00,VWS V14.01,2013-01-21 08:30:00,
2013-01-21 01:35:00,44.8,23.7,27.43,ESE,112,0.0,0.0,43,0.00,,---,0.00,VWS V14.01,2013-01-21 08:35:00,
2013-01-21 01:40:00,45.5,24.3,27.43,SE,135,0.0,0.0,43,0.00,,---,0.00,VWS V14.01,2013-01-21 08:40:00,
2013-01-21 01:45:00,45.5,24.3,27.43,SSW,202,0.0,0.0,43,0.00,,---,0.00,VWS V14.01,2013-01-21 08:45:00,
2013-01-21 01:50:00,45.5,24.3,27.43,South,180,0.0,0.0,43,0.00,,---,0.00,VWS V14.01,2013-01-21 08:50:00,
2013-01-21 01:55:00,45.0,23.8,27.43,South,180,0.0,0.0,43,0.00,,---,0.00,VWS V14.01,2013-01-21 08:55:00,
2013-01-21 02:00:00,44.8,24.2,27.43,SSE,158,0.0,0.0,44,0.00,,---,0.00,VWS V14.01,2013-01-21 09:00:00,
2013-01-21 02:05:00,44.8,24.2,27.43,SSE,158,0.0,0.0,44,0.00,,---,0.00,VWS V14.01,2013-01-21 09:05:00,
2013-01-21 02:10:00,44.8,24.2,27.43,SSE,158,0.0,0.0,44,0.00,,---,0.00,VWS V14.01,2013-01-21 09:10:00,
2013-01-21 02:15:00,44.8,24.2,27.43,SSE,158,0.0,0.0,44,0.00,,---,0.00,VWS V14.01,2013-01-21 09:15:00,
2013-01-21 02:20:00,44.8,24.2,27.43,East,90,0.0,0.0,44,0.00,,---,0.00,VWS V14.01,2013-01-21 09:20:00,
2013-01-21 02:25:00,44.8,24.2,27.43,East,90,0.0,0.0,44,0.00,,---,0.00,VWS V14.01,2013-01-21 09:25:00,
2013-01-21 02:30:00,44.8,24.2,27.43,East,90,0.0,0.0,44,0.00,,---,0.00,VWS V14.01,2013-01-21 09:30:00,
2013-01-21 02:35:00,44.1,25.1,27.43,East,90,0.0,0.0,47,0.00,,---,0.00,VWS V14.01,2013-01-21 09:35:00,
2013-01-21 02:40:00,44.1,25.1,27.43,East,90,0.0,0.0,47,0.00,,---,0.00,VWS V14.01,2013-01-21 09:40:00,
2013-01-21 02:45:00,44.1,25.1,27.43,East,90,0.0,0.0,47,0.00,,---,0.00,VWS V14.01,2013-01-21 09:45:00,
2013-01-21 02:50:00,44.1,25.1,27.43,East,90,0.0,0.0,47,0.00,,---,0.00,VWS V14.01,2013-01-21 09:50:00,
2013-01-21 02:55:00,44.1,25.1,27.43,East,90,0.0,0.0,47,0.00,,---,0.00,VWS V14.01,2013-01-21 09:55:00,
2013-01-21 03:01:00,44.1,25.1,27.43,East,90,0.0,0.0,47,0.00,,---,0.00,VWS V14.01,2013-01-21 10:01:00,
2013-01-21 03:06:00,44.1,25.1,27.43,East,90,0.0,0.0,47,0.00,,---,0.00,VWS V14.01,2013-01-21 10:06:00,
2013-01-21 03:11:00,44.1,25.1,27.43,East,90,0.0,0.0,47,0.00,,---,0.00,VWS V14.01,2013-01-21 10:11:00,
2013-01-21 03:16:00,44.1,25.1,27.43,SSW,202,0.0,0.0,47,0.00,,---,0.00,VWS V14.01,2013-01-21 10:16:00,
2013-01-21 03:22:00,44.1,25.1,27.43,East,90,0.0,0.0,47,0.00,,---,0.00,VWS V14.01,2013-01-21 10:22:00,
2013-01-21 03:27:00,42.1,25.7,27.43,East,90,0.0,0.0,52,0.00,,---,0.00,VWS V14.01,2013-01-21 10:27:00,
2013-01-21 03:32:00,42.1,25.7,27.46,East,90,0.0,0.0,52,0.00,,---,0.00,VWS V14.01,2013-01-21 10:32:00,
2013-01-21 03:37:00,42.1,25.7,27.46,East,90,0.0,0.0,52,0.00,,---,0.00,VWS V14.01,2013-01-21 10:37:00,
2013-01-21 03:42:00,41.5,25.7,27.43,East,90,0.0,0.0,53,0.00,,---,0.00,VWS V14.01,2013-01-21 10:42:00,
2013-01-21 03:47:00,41.4,25.5,27.43,East,90,0.0,0.0,53,0.00,,---,0.00,VWS V14.01,2013-01-21 10:47:00,
2013-01-21 03:52:00,41.4,25.5,27.43,East,90,0.0,0.0,53,0.00,,---,0.00,VWS V14.01,2013-01-21 10:52:00,
2013-01-21 03:57:00,41.2,25.8,27.43,East,90,0.0,0.0,54,0.00,,---,0.00,VWS V14.01,2013-01-21 10:57:00,
2013-01-21 04:02:00,41.2,25.8,27.43,East,90,0.0,0.0,54,0.00,,---,0.00,VWS V14.01,2013-01-21 11:02:00,
2013-01-21 04:07:00,41.2,25.8,27.43,East,90,0.0,0.0,54,0.00,,---,0.00,VWS V14.01,2013-01-21 11:07:00,
2013-01-21 04:12:00,41.5,26.1,27.43,East,90,0.0,0.0,54,0.00,,---,0.00,VWS V14.01,2013-01-21 11:12:00,
2013-01-21 04:17:00,41.7,26.3,27.43,ESE,112,0.0,0.0,54,0.00,,---,0.00,VWS V14.01,2013-01-21 11:17:00,
2013-01-21 04:22:00,41.7,26.3,27.43,ESE,112,0.0,0.0,54,0.00,,---,0.00,VWS V14.01,2013-01-21 11:22:00,
2013-01-21 04:28:00,41.7,26.3,27.43,ESE,112,0.0,0.0,54,0.00,,---,0.00,VWS V14.01,2013-01-21 11:28:00,
2013-01-21 04:33:00,41.7,25.9,27.43,SE,135,0.0,0.0,53,0.00,,---,0.00,VWS V14.01,2013-01-21 11:33:00,
2013-01-21 04:38:00,41.7,25.9,27.43,SE,135,0.0,0.0,53,0.00,,---,0.00,VWS V14.01,2013-01-21 11:38:00,
2013-01-21 04:43:00,42.1,26.2,27.43,SE,135,0.0,0.0,53,0.00,,---,0.00,VWS V14.01,2013-01-21 11:43:00,
2013-01-21 04:48:00,43.0,26.6,27.43,ESE,112,4.0,4.0,52,0.00,,---,0.00,VWS V14.01,2013-01-21 11:48:00,
2013-01-21 04:53:00,43.0,26.6,27.43,SE,135,3.1,3.1,52,0.00,,---,0.00,VWS V14.01,2013-01-21 11:53:00,
2013-01-21 04:58:00,43.0,26.6,27.43,SSE,158,0.0,2.7,52,0.00,,---,0.00,VWS V14.01,2013-01-21 11:58:00,
2013-01-21 05:03:00,43.0,26.6,27.43,SSE,158,0.0,0.0,52,0.00,,---,0.00,VWS V14.01,2013-01-21 12:03:00,
2013-01-21 05:08:00,43.0,25.6,27.43,SSE,158,2.7,2.7,50,0.00,,---,0.00,VWS V14.01,2013-01-21 12:08:00,
2013-01-21 05:13:00,43.0,25.6,27.43,ESE,112,0.0,0.0,50,0.00,,---,0.00,VWS V14.01,2013-01-21 12:13:00,
2013-01-21 05:18:00,43.0,25.6,27.43,SE,135,0.0,0.0,50,0.00,,---,0.00,VWS V14.01,2013-01-21 12:18:00,
2013-01-21 05:23:00,43.0,25.6,27.43,ESE,112,0.0,0.0,50,0.00,,---,0.00,VWS V14.01,2013-01-21 12:23:00,
2013-01-21 05:28:00,43.0,25.6,27.43,East,90,0.0,0.0,50,0.00,,---,0.00,VWS V14.01,2013-01-21 12:28:00,
2013-01-21 05:33:00,43.2,25.3,27.43,ESE,112,2.2,2.7,49,0.00,,---,0.00,VWS V14.01,2013-01-21 12:33:00,
2013-01-21 05:38:00,43.2,25.3,27.43,East,90,2.2,2.2,49,0.00,,---,0.00,VWS V14.01,2013-01-21 12:38:00,
2013-01-21 05:43:00,43.2,25.3,27.43,ESE,112,2.7,2.7,49,0.00,,---,0.00,VWS V14.01,2013-01-21 12:43:00,
2013-01-21 05:48:00,43.2,25.3,27.43,East,90,0.0,0.0,49,0.00,,---,0.00,VWS V14.01,2013-01-21 12:48:00,
2013-01-21 05:53:00,43.2,25.3,27.43,ESE,112,0.0,0.0,49,0.00,,---,0.00,VWS V14.01,2013-01-21 12:53:00,
2013-01-21 05:58:00,43.2,25.3,27.43,ESE,112,0.0,0.0,49,0.00,,---,0.00,VWS V14.01,2013-01-21 12:58:00,
2013-01-21 06:03:00,42.6,25.3,27.43,SE,135,0.0,0.0,50,0.00,,---,0.00,VWS V14.01,2013-01-21 13:03:00,
2013-01-21 06:08:00,43.2,25.8,27.43,ESE,112,2.7,2.7,50,0.00,,---,0.00,VWS V14.01,2013-01-21 13:08:00,
2013-01-21 06:13:00,43.2,25.8,27.43,SE,135,0.0,0.0,50,0.00,,---,0.00,VWS V14.01,2013-01-21 13:13:00,
2013-01-21 06:18:00,43.7,25.8,27.43,ESE,112,3.6,3.6,49,0.00,,---,0.00,VWS V14.01,2013-01-21 13:18:00,
2013-01-21 06:23:00,43.7,25.8,27.43,SE,135,0.0,0.0,49,0.00,,---,0.00,VWS V14.01,2013-01-21 13:23:00,
2013-01-21 06:28:00,43.7,25.8,27.43,SE,135,0.0,0.0,49,0.00,,---,0.00,VWS V14.01,2013-01-21 13:28:00,
2013-01-21 06:33:00,43.7,25.8,27.43,SW,225,0.0,0.0,49,0.00,,---,0.00,VWS V14.01,2013-01-21 13:33:00,
2013-01-21 06:38:00,43.7,25.8,27.43,SW,225,0.0,0.0,49,0.00,,---,0.00,VWS V14.01,2013-01-21 13:38:00,
2013-01-21 06:43:00,42.6,24.8,27.43,SW,225,0.0,0.0,49,0.00,,---,0.00,VWS V14.01,2013-01-21 13:43:00,
2013-01-21 06:48:00,42.6,24.8,27.43,SW,225,0.0,0.0,49,0.00,,---,0.00,VWS V14.01,2013-01-21 13:48:00,
2013-01-21 06:53:00,41.7,24.5,27.43,SW,225,0.0,0.0,50,0.00,,---,0.00,VWS V14.01,2013-01-21 13:53:00,
2013-01-21 06:58:00,41.5,24.8,27.43,ESE,112,0.0,0.0,51,0.00,,---,0.00,VWS V14.01,2013-01-21 13:58:00,
2013-01-21 07:03:00,41.5,24.8,27.43,SSW,202,0.0,0.0,51,0.00,,---,0.00,VWS V14.01,2013-01-21 14:03:00,
2013-01-21 07:08:00,41.5,24.8,27.43,SSW,202,0.0,0.0,51,0.00,,---,0.00,VWS V14.01,2013-01-21 14:08:00,
2013-01-21 07:13:00,40.6,24.9,27.43,South,180,0.0,0.0,53,0.00,,---,0.00,VWS V14.01,2013-01-21 14:13:00,
2013-01-21 07:18:00,40.6,24.9,27.43,SSW,202,0.0,0.0,53,0.00,,---,0.00,VWS V14.01,2013-01-21 14:18:00,
2013-01-21 07:23:00,40.5,25.6,27.43,South,180,0.0,0.0,55,0.00,,---,0.00,VWS V14.01,2013-01-21 14:23:00,
2013-01-21 07:28:00,40.6,26.2,27.43,South,180,0.0,0.0,56,0.00,,---,0.00,VWS V14.01,2013-01-21 14:28:00,
2013-01-21 07:33:00,40.6,26.2,27.43,SSW,202,0.0,0.0,56,0.00,,---,0.00,VWS V14.01,2013-01-21 14:33:00,
2013-01-21 07:38:00,40.6,26.2,27.43,SSW,202,0.0,0.0,56,0.00,,---,0.00,VWS V14.01,2013-01-21 14:38:00,
2013-01-21 07:43:00,40.6,26.2,27.43,SSW,202,0.0,0.0,56,0.00,,---,0.00,VWS V14.01,2013-01-21 14:43:00,
2013-01-21 07:48:00,40.1,25.7,27.43,SSW,202,0.0,0.0,56,0.00,,---,0.00,VWS V14.01,2013-01-21 14:48:00,
2013-01-21 07:53:00,40.6,26.6,27.43,SSW,202,0.0,0.0,57,0.00,,---,0.00,VWS V14.01,2013-01-21 14:53:00,
2013-01-21 07:59:00,40.6,26.6,27.43,SSW,202,0.0,0.0,57,0.00,,---,0.00,VWS V14.01,2013-01-21 14:59:00,
2013-01-21 08:04:00,42.1,27.1,27.43,SSW,202,0.0,0.0,55,0.00,,---,0.00,VWS V14.01,2013-01-21 15:04:00,
2013-01-21 08:09:00,42.6,27.6,27.43,SW,225,0.0,0.0,55,0.00,,---,0.00,VWS V14.01,2013-01-21 15:09:00,
2013-01-21 08:14:00,44.6,28.1,27.43,SE,135,0.0,0.0,52,0.00,,---,0.00,VWS V14.01,2013-01-21 15:14:00,
2013-01-21 08:19:00,45.9,28.3,27.43,SE,135,0.0,0.0,50,0.00,,---,0.00,VWS V14.01,2013-01-21 15:19:00,
2013-01-21 08:24:00,46.8,28.6,27.43,SSW,202,0.0,0.0,49,0.00,,---,0.00,VWS V14.01,2013-01-21 15:24:00,
2013-01-21 08:29:00,46.8,28.6,27.43,East,90,0.0,0.0,49,0.00,,---,0.00,VWS V14.01,2013-01-21 15:29:00,
2013-01-21 08:34:00,49.8,27.7,27.43,East,90,0.0,0.0,42,0.00,,---,0.00,VWS V14.01,2013-01-21 15:34:00,
2013-01-21 08:39:00,50.7,27.3,27.43,East,90,0.0,0.0,40,0.00,,---,0.00,VWS V14.01,2013-01-21 15:39:00,
2013-01-21 08:44:00,51.4,27.3,27.46,East,90,0.0,0.0,39,0.00,,---,0.00,VWS V14.01,2013-01-21 15:44:00,
2013-01-21 08:49:00,51.4,27.3,27.46,East,90,0.0,0.0,39,0.00,,---,0.00,VWS V14.01,2013-01-21 15:49:00,
2013-01-21 08:54:00,54.3,28.0,27.46,East,90,0.0,0.0,36,0.00,,---,0.00,VWS V14.01,2013-01-21 15:54:00,
2013-01-21 08:59:00,54.7,28.3,27.46,East,90,0.0,0.0,36,0.00,,---,0.00,VWS V14.01,2013-01-21 15:59:00,
2013-01-21 09:04:00,54.7,28.3,27.46,ENE,68,0.0,0.0,36,0.00,,---,0.00,VWS V14.01,2013-01-21 16:04:00,
2013-01-21 09:09:00,55.2,28.1,27.46,NE,45,2.2,2.2,35,0.00,,---,0.00,VWS V14.01,2013-01-21 16:09:00,
2013-01-21 09:14:00,55.9,28.7,27.46,NNE,22,2.7,2.7,35,0.00,,---,0.00,VWS V14.01,2013-01-21 16:14:00,
2013-01-21 09:19:00,55.9,28.7,27.46,North,0,0.0,0.0,35,0.00,,---,0.00,VWS V14.01,2013-01-21 16:19:00,
2013-01-21 09:24:00,55.9,28.7,27.46,NNE,22,3.1,3.1,35,0.00,,---,0.00,VWS V14.01,2013-01-21 16:24:00,
2013-01-21 09:30:00,55.9,28.7,27.46,NNE,22,2.7,2.7,35,0.00,,---,0.00,VWS V14.01,2013-01-21 16:30:00,
2013-01-21 09:35:00,56.7,27.2,27.46,North,0,2.2,2.7,32,0.00,,---,0.00,VWS V14.01,2013-01-21 16:35:00,
2013-01-21 09:40:00,56.7,27.2,27.46,NNE,22,3.6,3.6,32,0.00,,---,0.00,VWS V14.01,2013-01-21 16:40:00,
2013-01-21 09:45:00,56.7,27.2,27.49,SSW,202,2.2,3.6,32,0.00,,---,0.00,VWS V14.01,2013-01-21 16:45:00,
2013-01-21 09:50:00,59.2,27.0,27.49,NE,45,0.0,0.0,29,0.00,,---,0.00,VWS V14.01,2013-01-21 16:50:00,
2013-01-21 09:55:00,59.2,27.0,27.49,SSW,202,0.0,0.0,29,0.00,,---,0.00,VWS V14.01,2013-01-21 16:55:00,
2013-01-21 10:00:00,61.0,27.7,27.49,ENE,68,0.0,0.0,28,0.00,,---,0.00,VWS V14.01,2013-01-21 17:00:00,
2013-01-21 10:05:00,61.0,27.7,27.49,NE,45,0.0,0.0,28,0.00,,---,0.00,VWS V14.01,2013-01-21 17:05:00,
2013-01-21 10:10:00,61.0,27.7,27.49,ENE,68,0.0,0.0,28,0.00,,---,0.00,VWS V14.01,2013-01-21 17:10:00,
2013-01-21 10:15:00,61.0,27.7,27.49,North,0,0.0,0.0,28,0.00,,---,0.00,VWS V14.01,2013-01-21 17:15:00,
2013-01-21 10:20:00,62.6,27.3,27.49,SW,225,2.2,2.2,26,0.00,,---,0.00,VWS V14.01,2013-01-21 17:20:00,
2013-01-21 10:25:00,64.0,28.5,27.49,NNE,22,2.7,3.6,26,0.00,,---,0.00,VWS V14.01,2013-01-21 17:25:00,
2013-01-21 10:30:00,64.6,28.0,27.49,NNE,22,2.7,2.7,25,0.00,,---,0.00,VWS V14.01,2013-01-21 17:30:00,
2013-01-21 10:35:00,64.6,28.0,27.49,NNE,22,2.2,2.2,25,0.00,,---,0.00,VWS V14.01,2013-01-21 17:35:00,
2013-01-21 10:40:00,64.6,28.0,27.49,ENE,68,0.0,0.0,25,0.00,,---,0.00,VWS V14.01,2013-01-21 17:40:00,
2013-01-21 10:45:00,65.3,27.6,27.49,ENE,68,0.0,0.0,24,0.00,,---,0.00,VWS V14.01,2013-01-21 17:45:00,
2013-01-21 10:50:00,65.3,27.6,27.49,North,0,0.0,0.0,24,0.00,,---,0.00,VWS V14.01,2013-01-21 17:50:00,
2013-01-21 10:55:00,65.3,27.6,27.49,ESE,112,0.0,0.0,24,0.00,,---,0.00,VWS V14.01,2013-01-21 17:55:00,
2013-01-21 11:01:00,68.4,29.1,27.49,ENE,68,2.2,2.2,23,0.00,,---,0.00,VWS V14.01,2013-01-21 18:01:00,
2013-01-21 11:06:00,68.4,29.1,27.49,ENE,68,0.0,2.2,23,0.00,,---,0.00,VWS V14.01,2013-01-21 18:06:00,
2013-01-21 11:11:00,68.4,29.1,27.49,North,0,0.0,0.0,23,0.00,,---,0.00,VWS V14.01,2013-01-21 18:11:00,
2013-01-21 11:16:00,68.4,29.1,27.49,NE,45,2.7,2.7,23,0.00,,---,0.00,VWS V14.01,2013-01-21 18:16:00,
2013-01-21 11:21:00,71.1,30.3,27.49,ESE,112,3.1,3.1,22,0.00,,---,0.00,VWS V14.01,2013-01-21 18:21:00,
2013-01-21 11:26:00,71.1,30.3,27.49,ENE,68,2.2,2.2,22,0.00,,---,0.00,VWS V14.01,2013-01-21 18:26:00,
2013-01-21 11:31:00,71.1,30.3,27.49,NE,45,0.0,0.0,22,0.00,,---,0.00,VWS V14.01,2013-01-21 18:31:00,
2013-01-21 11:36:00,71.6,30.8,27.49,East,90,3.6,4.5,22,0.00,,---,0.00,VWS V14.01,2013-01-21 18:36:00,
2013-01-21 11:41:00,71.6,30.8,27.46,NE,45,5.4,5.4,22,0.00,,---,0.00,VWS V14.01,2013-01-21 18:41:00,
2013-01-21 11:46:00,71.6,30.8,27.46,NE,45,5.4,5.4,22,0.00,,---,0.00,VWS V14.01,2013-01-21 18:46:00,
2013-01-21 11:51:00,71.6,30.8,27.46,ESE,112,3.6,3.6,22,0.00,,---,0.00,VWS V14.01,2013-01-21 18:51:00,
2013-01-21 11:56:00,71.6,30.8,27.46,East,90,4.5,4.5,22,0.00,,---,0.00,VWS V14.01,2013-01-21 18:56:00,
2013-01-21 12:01:00,71.6,30.8,27.46,SSE,158,0.0,0.0,22,0.00,,---,0.00,VWS V14.01,2013-01-21 19:01:00,
2013-01-21 12:07:00,71.6,30.8,27.46,ENE,68,2.2,2.2,22,0.00,,---,0.00,VWS V14.01,2013-01-21 19:07:00,
2013-01-21 12:12:00,71.6,30.8,27.46,North,0,2.2,2.2,22,0.00,,---,0.00,VWS V14.01,2013-01-21 19:12:00,
2013-01-21 12:17:00,75.4,31.6,27.46,North,0,3.1,3.6,20,0.00,,---,0.00,VWS V14.01,2013-01-21 19:17:00,
2013-01-21 12:22:00,76.5,32.5,27.46,East,90,2.2,3.6,20,0.00,,---,0.00,VWS V14.01,2013-01-21 19:22:00,
2013-01-21 12:27:00,76.5,32.5,27.43,East,90,3.1,3.1,20,0.00,,---,0.00,VWS V14.01,2013-01-21 19:27:00,
2013-01-21 12:32:00,77.7,33.5,27.43,SE,135,0.0,0.0,20,0.00,,---,0.00,VWS V14.01,2013-01-21 19:32:00,
2013-01-21 12:37:00,77.7,33.5,27.43,East,90,0.0,3.1,20,0.00,,---,0.00,VWS V14.01,2013-01-21 19:37:00,
2013-01-21 12:42:00,77.7,33.5,27.43,ENE,68,0.0,0.0,20,0.00,,---,0.00,VWS V14.01,2013-01-21 19:42:00,
2013-01-21 12:47:00,77.7,33.5,27.43,East,90,4.9,4.9,20,0.00,,---,0.00,VWS V14.01,2013-01-21 19:47:00,
2013-01-21 12:52:00,77.7,33.5,27.43,ENE,68,0.0,0.0,20,0.00,,---,0.00,VWS V14.01,2013-01-21 19:52:00,
2013-01-21 12:57:00,77.7,33.5,27.43,ENE,68,2.7,2.7,20,0.00,,---,0.00,VWS V14.01,2013-01-21 19:57:00,
2013-01-21 13:02:00,77.7,33.5,27.43,ENE,68,2.2,2.2,20,0.00,,---,0.00,VWS V14.01,2013-01-21 20:02:00,
2013-01-21 13:08:00,79.2,30.6,27.43,North,0,0.0,0.0,17,0.00,,---,0.00,VWS V14.01,2013-01-21 20:08:00,
2013-01-21 13:13:00,79.2,30.6,27.43,NNE,22,0.0,0.0,17,0.00,,---,0.00,VWS V14.01,2013-01-21 20:13:00,
2013-01-21 13:18:00,79.2,30.6,27.43,ENE,68,2.7,2.7,17,0.00,,---,0.00,VWS V14.01,2013-01-21 20:18:00,
2013-01-21 13:23:00,82.0,33.0,27.43,North,0,0.0,0.0,17,0.00,,---,0.00,VWS V14.01,2013-01-21 20:23:00,
2013-01-21 13:28:00,82.0,33.0,27.43,SSE,158,2.7,2.7,17,0.00,,---,0.00,VWS V14.01,2013-01-21 20:28:00,
2013-01-21 13:33:00,82.0,33.0,27.43,ESE,112,3.1,3.1,17,0.00,,---,0.00,VWS V14.01,2013-01-21 20:33:00,
2013-01-21 13:38:00,82.0,33.0,27.43,East,90,0.0,0.0,17,0.00,,---,0.00,VWS V14.01,2013-01-21 20:38:00,
2013-01-21 13:43:00,82.0,33.0,27.43,NNE,22,3.6,3.6,17,0.00,,---,0.00,VWS V14.01,2013-01-21 20:43:00,
2013-01-21 13:48:00,82.0,33.0,27.43,East,90,0.0,0.0,17,0.00,,---,0.00,VWS V14.01,2013-01-21 20:48:00,
2013-01-21 13:53:00,82.0,33.0,27.43,ESE,112,3.6,3.6,17,0.00,,---,0.00,VWS V14.01,2013-01-21 20:53:00,
2013-01-21 13:59:00,82.0,33.0,27.40,SE,135,0.0,0.0,17,0.00,,---,0.00,VWS V14.01,2013-01-21 20:59:00,
2013-01-21 14:04:00,81.3,32.4,27.40,ESE,112,3.1,3.1,17,0.00,,---,0.00,VWS V14.01,2013-01-21 21:04:00,
2013-01-21 14:09:00,81.3,32.4,27.40,North,0,0.0,0.0,17,0.00,,---,0.00,VWS V14.01,2013-01-21 21:09:00,
2013-01-21 14:14:00,81.3,32.4,27.40,SSW,202,2.7,2.7,17,0.00,,---,0.00,VWS V14.01,2013-01-21 21:14:00,
2013-01-21 14:19:00,81.9,32.8,27.40,NW,315,0.0,0.0,17,0.00,,---,0.00,VWS V14.01,2013-01-21 21:19:00,
2013-01-21 14:24:00,81.9,32.8,27.40,ENE,68,2.2,2.2,17,0.00,,---,0.00,VWS V14.01,2013-01-21 21:24:00,
2013-01-21 14:29:00,82.4,31.8,27.40,ESE,112,2.2,2.2,16,0.00,,---,0.00,VWS V14.01,2013-01-21 21:29:00,
2013-01-21 14:34:00,82.0,33.0,27.40,ESE,112,0.0,0.0,17,0.00,,---,0.00,VWS V14.01,2013-01-21 21:34:00,
2013-01-21 14:40:00,82.0,33.0,27.40,West,270,0.0,0.0,17,0.00,,---,0.00,VWS V14.01,2013-01-21 21:40:00,
2013-01-21 14:45:00,82.6,31.9,27.40,SE,135,0.0,0.0,16,0.00,,---,0.00,VWS V14.01,2013-01-21 21:45:00,
2013-01-21 14:50:00,82.6,31.9,27.40,NE,45,0.0,0.0,16,0.00,,---,0.00,VWS V14.01,2013-01-21 21:50:00,
2013-01-21 14:55:00,83.3,32.5,27.40,SE,135,0.0,0.0,16,0.00,,---,0.00,VWS V14.01,2013-01-21 21:55:00,
2013-01-21 15:00:00,83.3,32.5,27.40,NW,315,7.2,7.2,16,0.00,,---,0.00,VWS V14.01,2013-01-21 22:00:00,
2013-01-21 15:05:00,83.3,32.5,27.40,North,0,0.0,0.0,16,0.00,,---,0.00,VWS V14.01,2013-01-21 22:05:00,
2013-01-21 15:10:00,81.3,32.4,27.40,NW,315,2.2,2.2,17,0.00,,---,0.00,VWS V14.01,2013-01-21 22:10:00,
2013-01-21 15:15:00,81.0,32.1,27.40,NNW,338,0.0,0.0,17,0.00,,---,0.00,VWS V14.01,2013-01-21 22:15:00,
2013-01-21 15:20:00,81.0,32.1,27.40,SSE,158,0.0,0.0,17,0.00,,---,0.00,VWS V14.01,2013-01-21 22:20:00,
2013-01-21 15:26:00,82.2,33.1,27.40,WNW,292,2.2,2.2,17,0.00,,---,0.00,VWS V14.01,2013-01-21 22:26:00,
2013-01-21 15:31:00,82.2,33.1,27.40,SW,225,0.0,2.2,17,0.00,,---,0.00,VWS V14.01,2013-01-21 22:31:00,
2013-01-21 15:36:00,82.2,33.1,27.40,NNE,22,0.0,0.0,17,0.00,,---,0.00,VWS V14.01,2013-01-21 22:36:00,
2013-01-21 15:41:00,82.2,33.1,27.40,WNW,292,0.0,0.0,17,0.00,,---,0.00,VWS V14.01,2013-01-21 22:41:00,
2013-01-21 15:46:00,81.1,32.2,27.40,WNW,292,3.6,3.6,17,0.00,,---,0.00,VWS V14.01,2013-01-21 22:46:00,
2013-01-21 15:51:00,81.5,32.5,27.40,North,0,4.0,4.0,17,0.00,,---,0.00,VWS V14.01,2013-01-21 22:51:00,
2013-01-21 15:56:00,81.5,32.5,27.40,West,270,7.6,7.6,17,0.00,,---,0.00,VWS V14.01,2013-01-21 22:56:00,
2013-01-21 16:01:00,80.1,31.4,27.40,WNW,292,3.6,3.6,17,0.00,,---,0.00,VWS V14.01,2013-01-21 23:01:00,
2013-01-21 16:06:00,80.1,31.4,27.40,WNW,292,3.1,3.1,17,0.00,,---,0.00,VWS V14.01,2013-01-21 23:06:00,
2013-01-21 16:11:00,80.1,31.4,27.40,North,0,6.3,6.3,17,0.00,,---,0.00,VWS V14.01,2013-01-21 23:11:00,
2013-01-21 16:16:00,79.0,30.5,27.40,North,0,6.3,6.3,17,0.00,,---,0.00,VWS V14.01,2013-01-21 23:16:00,
2013-01-21 16:21:00,79.0,30.5,27.40,NNE,22,0.0,2.7,17,0.00,,---,0.00,VWS V14.01,2013-01-21 23:21:00,
2013-01-21 16:27:00,79.0,30.5,27.40,West,270,2.2,2.2,17,0.00,,---,0.00,VWS V14.01,2013-01-21 23:27:00,
2013-01-21 16:32:00,78.8,30.4,27.40,WSW,248,4.0,4.0,17,0.00,,---,0.00,VWS V14.01,2013-01-21 23:32:00,
2013-01-21 16:37:00,78.8,30.4,27.40,WNW,292,3.1,3.1,17,0.00,,---,0.00,VWS V14.01,2013-01-21 23:37:00,
2013-01-21 16:42:00,78.1,31.2,27.40,NW,315,5.8,5.8,18,0.00,,---,0.00,VWS V14.01,2013-01-21 23:42:00,
2013-01-21 16:47:00,76.6,30.0,27.40,NNW,338,5.8,5.8,18,0.00,,---,0.00,VWS V14.01,2013-01-21 23:47:00,
2013-01-21 16:52:00,76.6,30.0,27.40,WNW,292,7.2,7.2,18,0.00,,---,0.00,VWS V14.01,2013-01-21 23:52:00,
2013-01-21 16:57:00,76.3,29.7,27.40,WNW,292,7.6,7.6,18,0.00,,---,0.00,VWS V14.01,2013-01-21 23:57:00,
2013-01-21 17:02:00,76.3,29.7,27.40,WNW,292,5.8,5.8,18,0.00,,---,0.00,VWS V14.01,2013-01-22 00:02:00,
2013-01-21 17:07:00,76.3,29.7,27.40,WSW,248,4.9,4.9,18,0.00,,---,0.00,VWS V14.01,2013-01-22 00:07:00,
2013-01-21 17:12:00,73.8,27.6,27.40,SW,225,8.1,8.1,18,0.00,,---,0.00,VWS V14.01,2013-01-22 00:12:00,
2013-01-21 17:17:00,73.8,27.6,27.40,WNW,292,0.0,0.0,18,0.00,,---,0.00,VWS V14.01,2013-01-22 00:17:00,
2013-01-21 17:22:00,72.7,28.1,27.40,WNW,292,4.0,4.0,19,0.00,,---,0.00,VWS V14.01,2013-01-22 00:22:00,
2013-01-21 17:28:00,72.7,28.1,27.40,WNW,292,4.0,4.0,19,0.00,,---,0.00,VWS V14.01,2013-01-22 00:28:00,
2013-01-21 17:33:00,72.7,28.1,27.40,WNW,292,5.4,5.4,19,0.00,,---,0.00,VWS V14.01,2013-01-22 00:33:00,
2013-01-21 17:38:00,72.7,28.1,27.40,NW,315,3.6,3.6,19,0.00,,---,0.00,VWS V14.01,2013-01-22 00:38:00,
2013-01-21 17:43:00,72.7,28.1,27.40,WNW,292,2.7,2.7,19,0.00,,---,0.00,VWS V14.01,2013-01-22 00:43:00,
2013-01-21 17:48:00,69.1,26.4,27.40,NNW,338,8.1,8.1,20,0.00,,---,0.00,VWS V14.01,2013-01-22 00:48:00,
2013-01-21 17:53:00,69.1,26.4,27.40,WNW,292,3.1,3.6,20,0.00,,---,0.00,VWS V14.01,2013-01-22 00:53:00,
2013-01-21 17:58:00,68.2,25.6,27.40,West,270,6.3,6.3,20,0.00,,---,0.00,VWS V14.01,2013-01-22 00:58:00,
2013-01-21 18:03:00,68.2,25.6,27.40,WNW,292,8.1,8.1,20,0.00,,---,0.00,VWS V14.01,2013-01-22 01:03:00,
2013-01-21 18:08:00,67.3,24.9,27.40,WNW,292,3.6,3.6,20,0.00,,---,0.00,VWS V14.01,2013-01-22 01:08:00,
2013-01-21 18:13:00,67.1,24.7,27.40,SSW,202,6.3,6.3,20,0.00,,---,0.00,VWS V14.01,2013-01-22 01:13:00,
2013-01-21 18:19:00,67.1,24.7,27.40,WNW,292,3.1,3.1,20,0.00,,---,0.00,VWS V14.01,2013-01-22 01:19:00,
2013-01-21 18:24:00,67.1,24.7,27.40,SSW,202,6.3,6.3,20,0.00,,---,0.00,VWS V14.01,2013-01-22 01:24:00,
2013-01-21 18:29:00,67.1,24.7,27.43,WNW,292,3.1,3.1,20,0.00,,---,0.00,VWS V14.01,2013-01-22 01:29:00,
2013-01-21 18:34:00,67.1,24.7,27.43,North,0,2.2,2.2,20,0.00,,---,0.00,VWS V14.01,2013-01-22 01:34:00,
2013-01-21 18:39:00,65.8,27.0,27.43,NNW,338,3.1,3.1,23,0.00,,---,0.00,VWS V14.01,2013-01-22 01:39:00,
2013-01-21 18:44:00,65.7,26.9,27.43,WNW,292,3.1,3.1,23,0.00,,---,0.00,VWS V14.01,2013-01-22 01:44:00,
2013-01-21 18:49:00,65.7,26.9,27.43,NW,315,0.0,4.0,23,0.00,,---,0.00,VWS V14.01,2013-01-22 01:49:00,
2013-01-21 18:54:00,65.5,26.7,27.43,North,0,2.2,2.2,23,0.00,,---,0.00,VWS V14.01,2013-01-22 01:54:00,
2013-01-21 18:59:00,65.5,26.7,27.43,NW,315,2.7,4.5,23,0.00,,---,0.00,VWS V14.01,2013-01-22 01:59:00,
2013-01-21 19:04:00,65.5,26.7,27.43,WSW,248,0.0,0.0,23,0.00,,---,0.00,VWS V14.01,2013-01-22 02:04:00,
2013-01-21 19:09:00,64.2,25.7,27.43,NNE,22,2.7,2.7,23,0.00,,---,0.00,VWS V14.01,2013-01-22 02:09:00,
2013-01-21 19:15:00,64.2,25.7,27.43,NNE,22,2.7,2.7,23,0.00,,---,0.00,VWS V14.01,2013-01-22 02:15:00,
2013-01-21 19:20:00,63.7,25.2,27.43,NNW,338,2.2,2.2,23,0.00,,---,0.00,VWS V14.01,2013-01-22 02:20:00,
2013-01-21 19:25:00,62.8,24.5,27.43,NNW,338,2.2,2.2,23,0.00,,---,0.00,VWS V14.01,2013-01-22 02:25:00,
2013-01-21 19:30:00,62.8,24.5,27.43,West,270,0.0,0.0,23,0.00,,---,0.00,VWS V14.01,2013-01-22 02:30:00,
2013-01-21 19:35:00,62.8,24.5,27.43,West,270,0.0,0.0,23,0.00,,---,0.00,VWS V14.01,2013-01-22 02:35:00,
2013-01-21 19:40:00,62.8,24.5,27.43,SSW,202,2.2,2.2,23,0.00,,---,0.00,VWS V14.01,2013-01-22 02:40:00,
2013-01-21 19:45:00,62.8,24.5,27.43,SSW,202,0.0,0.0,23,0.00,,---,0.00,VWS V14.01,2013-01-22 02:45:00,
2013-01-21 19:50:00,62.8,24.5,27.43,SSW,202,0.0,2.2,23,0.00,,---,0.00,VWS V14.01,2013-01-22 02:50:00,
2013-01-21 19:55:00,62.8,24.5,27.43,WSW,248,0.0,0.0,23,0.00,,---,0.00,VWS V14.01,2013-01-22 02:55:00,
2013-01-21 20:00:00,61.2,24.1,27.43,SW,225,0.0,2.2,24,0.00,,---,0.00,VWS V14.01,2013-01-22 03:00:00,
2013-01-21 20:05:00,61.2,24.1,27.43,SSW,202,2.2,2.2,24,0.00,,---,0.00,VWS V14.01,2013-01-22 03:05:00,
2013-01-21 20:10:00,61.2,24.1,27.43,SW,225,2.7,2.7,24,0.00,,---,0.00,VWS V14.01,2013-01-22 03:10:00,
2013-01-21 20:15:00,61.2,24.1,27.43,West,270,0.0,0.0,24,0.00,,---,0.00,VWS V14.01,2013-01-22 03:15:00,
2013-01-21 20:20:00,61.2,24.1,27.43,SE,135,0.0,0.0,24,0.00,,---,0.00,VWS V14.01,2013-01-22 03:20:00,
2013-01-21 20:26:00,61.2,24.1,27.43,SSW,202,0.0,0.0,24,0.00,,---,0.00,VWS V14.01,2013-01-22 03:26:00,
2013-01-21 20:31:00,61.2,24.1,27.43,WSW,248,0.0,0.0,24,0.00,,---,0.00,VWS V14.01,2013-01-22 03:31:00,
2013-01-21 20:36:00,61.2,24.1,27.43,SSW,202,2.7,2.7,24,0.00,,---,0.00,VWS V14.01,2013-01-22 03:36:00,
2013-01-21 20:41:00,60.1,23.2,27.43,West,270,0.0,0.0,24,0.00,,---,0.00,VWS V14.01,2013-01-22 03:41:00,
2013-01-21 20:46:00,60.1,23.2,27.43,West,270,2.2,2.7,24,0.00,,---,0.00,VWS V14.01,2013-01-22 03:46:00,
2013-01-21 20:51:00,59.9,23.0,27.43,SSW,202,2.7,2.7,24,0.00,,---,0.00,VWS V14.01,2013-01-22 03:51:00,
2013-01-21 20:56:00,59.2,22.4,27.46,SE,135,2.2,2.7,24,0.00,,---,0.00,VWS V14.01,2013-01-22 03:56:00,
2013-01-21 21:01:00,59.2,22.4,27.46,SSW,202,2.7,2.7,24,0.00,,---,0.00,VWS V14.01,2013-01-22 04:01:00,
2013-01-21 21:06:00,59.2,22.4,27.46,SSW,202,3.6,3.6,24,0.00,,---,0.00,VWS V14.01,2013-01-22 04:06:00,
2013-01-21 21:11:00,59.2,22.4,27.46,SW,225,0.0,0.0,24,0.00,,---,0.00,VWS V14.01,2013-01-22 04:11:00,
2013-01-21 21:16:00,59.2,22.4,27.46,SSW,202,3.6,3.6,24,0.00,,---,0.00,VWS V14.01,2013-01-22 04:16:00,
2013-01-21 21:21:00,59.2,22.4,27.46,SSW,202,2.7,2.7,24,0.00,,---,0.00,VWS V14.01,2013-01-22 04:21:00,
2013-01-21 21:26:00,59.2,22.4,27.46,South,180,2.2,2.2,24,0.00,,---,0.00,VWS V14.01,2013-01-22 04:26:00,
2013-01-21 21:31:00,57.2,22.6,27.46,ESE,112,2.2,2.2,26,0.00,,---,0.00,VWS V14.01,2013-01-22 04:31:00,
2013-01-21 21:37:00,57.2,22.6,27.46,ESE,112,2.7,2.7,26,0.00,,---,0.00,VWS V14.01,2013-01-22 04:37:00,
2013-01-21 21:42:00,57.2,22.6,27.46,East,90,2.2,2.2,26,0.00,,---,0.00,VWS V14.01,2013-01-22 04:42:00,
2013-01-21 21:47:00,55.9,22.5,27.46,ESE,112,0.0,0.0,27,0.00,,---,0.00,VWS V14.01,2013-01-22 04:47:00,
2013-01-21 21:52:00,55.9,22.5,27.46,ESE,112,0.0,0.0,27,0.00,,---,0.00,VWS V14.01,2013-01-22 04:52:00,
2013-01-21 21:57:00,55.9,22.5,27.46,ESE,112,0.0,0.0,27,0.00,,---,0.00,VWS V14.01,2013-01-22 04:57:00,
2013-01-21 22:00:00,55.9,22.5,27.46,ESE,112,0.0,0.0,27,0.00,,---,0.00,VWS V14.01,2013-01-22 05:00:00,
2013-01-21 22:03:00,55.9,22.5,27.46,ESE,112,0.0,0.0,27,0.00,,---,0.00,VWS V14.01,2013-01-22 05:03:00,
2013-01-21 22:08:00,55.9,22.5,27.46,ESE,112,0.0,0.0,27,0.00,,---,0.00,VWS V14.01,2013-01-22 05:08:00,
2013-01-21 22:13:00,55.9,22.5,27.49,East,90,0.0,0.0,27,0.00,,---,0.00,VWS V14.01,2013-01-22 05:13:00,
2013-01-21 22:19:00,55.9,22.5,27.49,East,90,0.0,0.0,27,0.00,,---,0.00,VWS V14.01,2013-01-22 05:19:00,
2013-01-21 22:24:00,55.9,22.5,27.49,East,90,0.0,0.0,27,0.00,,---,0.00,VWS V14.01,2013-01-22 05:24:00,
2013-01-21 22:29:00,55.9,22.5,27.49,East,90,0.0,0.0,27,0.00,,---,0.00,VWS V14.01,2013-01-22 05:29:00,
2013-01-21 22:34:00,55.9,22.5,27.49,ESE,112,2.7,2.7,27,0.00,,---,0.00,VWS V14.01,2013-01-22 05:34:00,
2013-01-21 22:39:00,55.9,22.5,27.49,ESE,112,2.2,2.2,27,0.00,,---,0.00,VWS V14.01,2013-01-22 05:39:00,
2013-01-21 22:44:00,55.9,22.5,27.49,SE,135,3.1,3.1,27,0.00,,---,0.00,VWS V14.01,2013-01-22 05:44:00,
2013-01-21 22:49:00,55.9,22.5,27.49,ESE,112,2.7,2.7,27,0.00,,---,0.00,VWS V14.01,2013-01-22 05:49:00,
2013-01-21 22:54:00,53.2,26.3,27.49,SE,135,3.1,3.1,35,0.00,,---,0.00,VWS V14.01,2013-01-22 05:54:00,
2013-01-21 22:59:00,52.9,26.7,27.49,ESE,112,3.1,3.1,36,0.00,,---,0.00,VWS V14.01,2013-01-22 05:59:00,
2013-01-21 23:04:00,52.9,26.7,27.49,ESE,112,2.7,2.7,36,0.00,,---,0.00,VWS V14.01,2013-01-22 06:04:00,
2013-01-21 23:09:00,52.9,26.7,27.49,SE,135,2.7,2.7,36,0.00,,---,0.00,VWS V14.01,2013-01-22 06:09:00,
2013-01-21 23:14:00,52.9,26.7,27.49,ESE,112,2.7,2.7,36,0.00,,---,0.00,VWS V14.01,2013-01-22 06:14:00,
2013-01-21 23:19:00,52.9,26.7,27.49,ESE,112,3.1,4.0,36,0.00,,---,0.00,VWS V14.01,2013-01-22 06:19:00,
2013-01-21 23:25:00,52.9,26.7,27.49,ESE,112,2.2,2.7,36,0.00,,---,0.00,VWS V14.01,2013-01-22 06:25:00,
2013-01-21 23:30:00,52.9,26.7,27.49,ESE,112,2.7,2.7,36,0.00,,---,0.00,VWS V14.01,2013-01-22 06:30:00,
2013-01-21 23:35:00,52.5,26.4,27.49,SE,135,0.0,0.0,36,0.00,,---,0.00,VWS V14.01,2013-01-22 06:35:00,
2013-01-21 23:40:00,52.5,26.4,27.49,ESE,112,2.7,2.7,36,0.00,,---,0.00,VWS V14.01,2013-01-22 06:40:00,
2013-01-21 23:45:00,52.5,26.4,27.49,SSW,202,0.0,0.0,36,0.00,,---,0.00,VWS V14.01,2013-01-22 06:45:00,
2013-01-21 23:50:00,52.5,26.4,27.49,SSE,158,0.0,0.0,36,0.00,,---,0.00,VWS V14.01,2013-01-22 06:50:00,
2013-01-21 23:55:00,52.5,26.4,27.49,SSE,158,0.0,0.0,36,0.00,,---,0.00,VWS V14.01,2013-01-22 06:55:00,